Flight Track Log - Related Links

Times and Time Zones

All times are in EST time to prevent confusion due to time zone crossing. See the N173DS flight status page for this flight to view local times or setup timezone preferences in your user account.

Time Position Orientation Groundspeed Altitude Reporting Facility
EST Latitude Longitude Course Direction KTS MPH feet Rate Location/Type
Fri 07:50:41 AM 27.4000 -82.5667 299° West 162 186 600  Level Tampa TRACON
Fri 07:51:17 AM 27.4167 -82.6000 299° West 210 242 2,100 2,176 Climbing Tampa TRACON
Fri 07:52:23 AM 27.4000 -82.6667 254° West 252 290 4,300 2,286 Climbing Tampa TRACON
Fri 07:54:47 AM 27.5106 -82.7939 314° West 244 281 10,100 2,294 Climbing Miami Center
Fri 07:55:47 AM 27.5961 -82.7889 North 258 297 12,100 2,839 Climbing Miami Center
Fri 07:58:12 AM 27.8389 -82.7894 360° North 350 403 19,800 2,341 Climbing Jacksonville Center
Fri 07:59:12 AM 27.9581 -82.7869 North 390 449 20,100 1,100 Climbing Jacksonville Center
Fri 08:00:12 AM 28.0811 -82.7892 359° North 420 483 22,000 1,950 Climbing Jacksonville Center
Fri 08:01:12 AM 28.2042 -82.7867 North 436 502 24,000 1,500 Climbing Jacksonville Center
Fri 08:02:12 AM 28.3294 -82.7864 360° North 441 507 25,000 850 Climbing Jacksonville Center
Fri 08:03:12 AM 28.4608 -82.7817 North 441 507 25,700 500 Climbing Jacksonville Center
Fri 08:04:12 AM 28.5944 -82.7672 North 459 528 26,000 800 Climbing Jacksonville Center
Fri 08:05:12 AM 28.7236 -82.7553 North 472 543 27,300 1,200 Climbing Jacksonville Center
Fri 08:06:12 AM 28.8572 -82.7456 North 477 549 28,400 1,000 Climbing Jacksonville Center
Fri 08:07:12 AM 28.9950 -82.7311 North 482 555 29,300 1,000 Climbing Jacksonville Center
Fri 08:08:12 AM 29.1350 -82.7192 North 488 562 30,400 1,100 Climbing Jacksonville Center
Fri 08:09:12 AM 29.2664 -82.7069 North 506 582 31,500 1,550 Climbing Jacksonville Center
Fri 08:10:12 AM 29.4061 -82.6947 North 513 590 33,500 2,300 Climbing Jacksonville Center
Fri 08:11:12 AM 29.5525 -82.7158 353° North 483 556 36,100 2,450 Climbing Jacksonville Center
Fri 08:12:12 AM 29.6756 -82.7275 355° North 450 518 38,400 1,700 Climbing Jacksonville Center
Fri 08:13:12 AM 29.8008 -82.7297 359° North 446 513 39,500 1,050 Climbing Jacksonville Center
Fri 08:14:12 AM 29.9303 -82.7128 North 463 533 40,500 750 Climbing Jacksonville Center
Fri 08:15:12 AM 30.0472 -82.6933 North 460 529 41,000 250 Climbing Jacksonville Center
Fri 08:16:12 AM 30.1808 -82.6764 North 466 536 41,000  Level Jacksonville Center
Fri 08:17:12 AM 30.3206 -82.6592 North 487 560 41,000  Level Jacksonville Center
Fri 08:18:12 AM 30.4606 -82.6419 North 494 568 41,000  Level Jacksonville Center
Fri 08:19:12 AM 30.6108 -82.6269 North 499 574 41,000  Level Jacksonville Center
Fri 08:20:12 AM 30.7464 -82.6122 North 499 574 41,000  Level Jacksonville Center
Fri 08:21:12 AM 30.8864 -82.5925 North 499 574 41,000  Level Jacksonville Center
Fri 08:22:12 AM 31.0261 -82.5775 North 499 574 41,000  Level Jacksonville Center
Fri 08:23:12 AM 31.1472 -82.5600 North 499 574 41,000  Level Jacksonville Center
Fri 08:24:12 AM 31.2869 -82.5425 North 499 574 41,000  Level Jacksonville Center
Fri 08:25:51 AM 31.5139 -82.5139 North 513 590 41,000  Level Atlanta Center
Fri 08:26:51 AM 31.6575 -82.4897 North 513 590 41,000  Level Atlanta Center
Fri 08:27:51 AM 31.7950 -82.4725 North 507 583 41,000  Level Atlanta Center
Fri 08:28:51 AM 31.9306 -82.4506 North 496 571 41,000  Level Atlanta Center
Fri 08:29:51 AM 32.0658 -82.4261 North 496 571 41,000  Level Atlanta Center
Fri 08:30:51 AM 32.2033 -82.4042 North 496 571 41,000  Level Atlanta Center
Fri 08:31:51 AM 32.3386 -82.3819 North 496 571 41,000  Level Atlanta Center
Fri 08:32:51 AM 32.4761 -82.3622 North 496 571 41,000  Level Atlanta Center
Fri 08:33:51 AM 32.6261 -82.3369 North 496 571 41,000  Level Atlanta Center
Fri 08:34:51 AM 32.7614 -82.3147 North 496 571 41,000  Level Atlanta Center
Fri 08:35:51 AM 32.8989 -82.2947 North 496 571 41,000  Level Atlanta Center
Fri 08:36:51 AM 33.0342 -82.2697 North 491 565 41,000  Level Atlanta Center
Fri 08:37:51 AM 33.1717 -82.2494 North 491 565 41,000  Level Atlanta Center
Fri 08:38:51 AM 33.3092 -82.2267 North 491 565 41,000  Level Atlanta Center
Fri 08:39:51 AM 33.4403 -82.2042 North 491 565 41,000  Level Atlanta Center
Fri 08:40:51 AM 33.5756 -82.1839 North 485 558 41,000  Level Atlanta Center
Fri 08:41:51 AM 33.7069 -82.1608 North 479 551 41,000  Level Atlanta Center
Fri 08:42:51 AM 33.8400 -82.1381 North 479 551 41,000  Level Atlanta Center
Fri 08:43:51 AM 33.9608 -82.1178 North 479 551 41,000  Level Atlanta Center
Fri 08:44:51 AM 34.0897 -82.0947 North 479 551 41,000  Level Atlanta Center
Fri 08:45:51 AM 34.2250 -82.0717 North 479 551 41,000  Level Atlanta Center
Fri 08:46:51 AM 34.3542 -82.0461 North 479 551 41,000  Level Atlanta Center
Fri 08:47:51 AM 34.4872 -82.0253 North 474 545 41,000  Level Atlanta Center
Fri 08:48:51 AM 34.6183 -82.0019 North 479 551 41,000  Level Atlanta Center
Fri 08:49:51 AM 34.7494 -81.9808 North 479 551 41,000  Level Atlanta Center
Fri 08:50:51 AM 34.8786 -81.9575 North 479 551 41,000  Level Atlanta Center
Fri 08:51:51 AM 35.0222 -81.9336 North 474 545 41,000  Level Atlanta Center
Fri 08:52:51 AM 35.1242 -81.9286 North 467 537 41,000  Level Atlanta Center
Fri 08:53:51 AM 35.2619 -81.9200 North 460 529 41,000  Level Atlanta Center
Fri 08:54:51 AM 35.3889 -81.9142 North 455 524 41,000  Level Atlanta Center
Fri 08:55:51 AM 35.5142 -81.9083 North 455 524 41,000  Level Atlanta Center
Fri 08:56:51 AM 35.6433 -81.9050 North 455 524 41,000  Level Atlanta Center
Fri 08:57:51 AM 35.7706 -81.8967 North 460 529 41,000  Level Atlanta Center
Fri 08:58:51 AM 35.8933 -81.8881 North 455 524 41,000  Level Atlanta Center
Fri 08:59:51 AM 36.0206 -81.8847 North 455 524 41,000  Level Atlanta Center
Fri 09:00:51 AM 36.1475 -81.8736 North 455 524 41,000  Level Atlanta Center
Fri 09:01:51 AM 36.2686 -81.8731 360° North 449 517 41,000  Level Atlanta Center
Fri 09:02:51 AM 36.3936 -81.8669 North 449 517 41,000  Level Atlanta Center
Fri 09:04:27 AM 36.6122 -81.8542 North 456 525 41,000  Level Indianapolis Center
Fri 09:05:28 AM 36.7439 -81.8472 North 466 536 41,000  Level Indianapolis Center
Fri 09:06:29 AM 36.8731 -81.8417 North 465 535 41,000  Level Indianapolis Center
Fri 09:07:30 AM 37.0006 -81.8364 North 459 528 41,000  Level Indianapolis Center
Fri 09:08:31 AM 37.1278 -81.8303 North 458 527 41,000  Level Indianapolis Center
Fri 09:09:33 AM 37.2533 -81.8244 North 453 521 41,000  Level Indianapolis Center
Fri 09:10:34 AM 37.3778 -81.8189 North 449 517 41,000  Level Indianapolis Center
Fri 09:11:35 AM 37.5028 -81.8125 North 449 517 41,000  Level Indianapolis Center
Fri 09:12:36 AM 37.6258 -81.8056 North 443 510 41,000  Level Indianapolis Center
Fri 09:13:37 AM 37.7692 -81.7986 North 442 509 41,000  Level Indianapolis Center
Fri 09:14:38 AM 37.8919 -81.7922 North 445 512 41,000  Level Indianapolis Center
Fri 09:15:39 AM 38.0144 -81.7858 North 440 506 41,000 -98 Level Indianapolis Center
Fri 09:16:40 AM 38.1367 -81.7797 North 438 504 40,800 -829 Descending Indianapolis Center
Fri 09:17:42 AM 38.2608 -81.7744 North 444 511 39,300 -1,463 Descending Indianapolis Center
Fri 09:18:43 AM 38.3872 -81.7681 North 450 518 37,800 -1,525 Descending Indianapolis Center
Fri 09:19:44 AM 38.5103 -81.7681 360° North 439 505 36,200 -1,426 Descending Indianapolis Center
Fri 09:20:45 AM 38.6297 -81.7661 North 424 488 34,900 -1,426 Descending Indianapolis Center
Fri 09:21:46 AM 38.7453 -81.7631 North 409 471 33,300 -1,426 Descending Indianapolis Center
Fri 09:22:47 AM 38.8581 -81.7617 North 398 458 32,000 -639 Descending Indianapolis Center
Fri 09:23:48 AM 38.9706 -81.7600 North 400 460 32,000  Level Indianapolis Center
Fri 09:24:50 AM 39.0839 -81.7583 North 403 464 32,000 -293 Level Indianapolis Center
Fri 09:25:51 AM 39.1972 -81.7569 North 407 468 31,400 -836 Descending Indianapolis Center
Fri 09:26:52 AM 39.3028 -81.7553 North 381 438 30,300 -1,082 Descending Indianapolis Center
Fri 09:27:53 AM 39.4092 -81.7542 360° North 380 437 29,200 -1,230 Descending Indianapolis Center
Fri 09:28:54 AM 39.5183 -81.7508 North 390 449 27,800 -1,672 Descending Indianapolis Center
Fri 09:29:55 AM 39.6294 -81.7511 360° North 397 457 25,800 -1,951 Descending Indianapolis Center
Fri 09:30:57 AM 39.7422 -81.7492 North 399 459 23,800 -1,951 Descending Indianapolis Center
Fri 09:31:58 AM 39.8506 -81.7478 North 392 451 21,800 -1,918 Descending Indianapolis Center
Fri 09:32:59 AM 39.9550 -81.7458 North 382 440 19,900 -2,016 Descending Indianapolis Center
Fri 09:34:00 AM 40.0631 -81.7422 North 362 417 17,700 -1,869 Descending Indianapolis Center
Fri 09:35:01 AM 40.1586 -81.7411 North 344 396 16,100 -1,820 Descending Indianapolis Center
Fri 09:36:02 AM 40.2522 -81.7400 North 334 384 14,000 -1,707 Descending Indianapolis Center
Fri 09:37:04 AM 40.3453 -81.7378 North 330 380 12,600 -976 Descending Indianapolis Center
Fri 09:38:05 AM 40.4361 -81.7364 North 324 373 12,000 -1,230 Descending Indianapolis Center
Fri 09:39:06 AM 40.5347 -81.7361 360° North 300 345 10,100 -1,426 Descending Indianapolis Center
Fri 09:40:07 AM 40.6133 -81.7342 North 283 326 9,100 -1,220 Descending Indianapolis Center
Fri 09:41:09 AM 40.6669 -81.6836 36° Northeast 272 313 7,600 -2,195 Descending Indianapolis Center
Fri 09:42:10 AM 40.6953 -81.5969 67° East 263 303 4,600 -2,262 Descending Indianapolis Center
Fri 09:43:11 AM 40.7256 -81.5156 64° Northeast 254 292 3,000 -787 Descending Indianapolis Center
Fri 09:44:12 AM 40.7650 -81.4544 50° Northeast 234 269 3,000  Level Indianapolis Center
Fri 09:45:14 AM 40.8153 -81.4442 North 198 228 3,000 -293 Level Indianapolis Center
Fri 09:46:15 AM 40.8550 -81.4414 North 156 180 2,400 -639 Descending Indianapolis Center
Fri 09:47:16 AM 40.8908 -81.4403 North 133 153 1,700 -439 Descending Indianapolis Center
Fri 09:48:18 AM 40.9256 -81.4406 360° North 132 152 1,500 -194 Descending Indianapolis Center
Fri 09:50:00 AM 40.9151 -81.4436 180° South  Level Estimated

Login

Don't have an account? Register now (free) for customized features, flight alerts, and more!